Time;durP1;ratioP1;P1;durP2;ratioP2;P2;SDS_P1;SDS_P2;PMS_P1;PMS_P2;Temp;Humidity;BMP_temperature;BMP_pressure;BME280_temperature;BME280_humidity;BME280_pressure;Samples;Min_cycle;Max_cycle;Signal;HPM_P1;HPM_P2
2024/01/20 00:00:49;;;;;;;8.88;5.40;;;-4.50;99.90;;;;;;4859644;29;20449;-69
2024/01/20 00:03:14;;;;;;;8.55;4.53;;;-4.50;99.90;;;;;;4874368;29;20113;-69
2024/01/20 00:05:41;;;;;;;4.97;3.72;;;-4.50;99.90;;;;;;4857885;29;20060;-69
2024/01/20 00:08:06;;;;;;;13.40;5.60;;;-4.50;99.90;;;;;;4874300;29;20246;-69
2024/01/20 00:10:32;;;;;;;9.85;5.03;;;-4.50;99.90;;;;;;4859718;29;20082;-69
2024/01/20 00:12:58;;;;;;;10.10;5.95;;;-4.50;99.90;;;;;;4859949;29;20064;-69
2024/01/20 00:15:24;;;;;;;7.13;5.10;;;-4.60;99.90;;;;;;4859882;29;20036;-69
2024/01/20 00:17:49;;;;;;;7.80;4.53;;;-4.60;99.90;;;;;;4860132;29;20036;-69
2024/01/20 00:20:15;;;;;;;14.68;9.15;;;-4.70;99.90;;;;;;4860292;29;20502;-70
2024/01/20 00:22:42;;;;;;;7.22;4.38;;;-4.70;99.90;;;;;;4859544;29;20097;-69
2024/01/20 00:25:08;;;;;;;10.32;7.22;;;-4.80;99.90;;;;;;4858912;29;20426;-69
2024/01/20 00:27:35;;;;;;;6.88;5.07;;;-4.80;99.90;;;;;;4850946;29;20101;-70
2024/01/20 00:30:00;;;;;;;13.27;4.85;;;-4.80;99.90;;;;;;4874256;29;20026;-69
2024/01/20 00:32:26;;;;;;;6.68;4.85;;;-4.90;99.90;;;;;;4851026;29;20041;-69
2024/01/20 00:34:52;;;;;;;5.60;3.92;;;-4.90;99.90;;;;;;4858644;29;20115;-69
2024/01/20 00:37:17;;;;;;;10.57;7.10;;;-4.90;99.90;;;;;;4858970;29;20037;-69
2024/01/20 00:39:43;;;;;;;29.45;6.90;;;-4.90;99.90;;;;;;4858585;29;20559;-69
2024/01/20 00:42:12;;;;;;;10.95;5.80;;;-4.90;99.90;;;;;;4859018;29;20033;-69
2024/01/20 00:44:41;;;;;;;11.35;5.43;;;-5.00;99.90;;;;;;4858137;29;20455;-69
2024/01/20 00:47:07;;;;;;;7.22;4.80;;;-5.00;99.90;;;;;;4856276;29;20042;-70
2024/01/20 00:49:33;;;;;;;12.27;5.72;;;-5.00;99.90;;;;;;4873168;29;20583;-69
2024/01/20 00:51:58;;;;;;;8.65;4.90;;;-5.10;99.90;;;;;;4858357;29;20037;-69
2024/01/20 00:54:24;;;;;;;9.38;7.60;;;-5.00;99.90;;;;;;4851038;29;20038;-70
2024/01/20 00:56:50;;;;;;;9.90;6.97;;;-5.00;99.90;;;;;;4873443;29;20045;-69
2024/01/20 00:59:16;;;;;;;12.23;7.00;;;-4.90;99.90;;;;;;4856940;29;20041;-69
2024/01/20 01:01:41;;;;;;;7.28;5.10;;;-4.90;99.90;;;;;;4859088;29;20037;-69
2024/01/20 01:04:07;;;;;;;12.27;7.90;;;-4.80;99.90;;;;;;4852868;29;20090;-69
2024/01/20 01:06:33;;;;;;;13.25;5.72;;;-4.70;99.90;;;;;;4857571;29;20052;-69
2024/01/20 01:08:58;;;;;;;14.07;7.32;;;-4.70;99.90;;;;;;4858765;29;20099;-69
2024/01/20 01:11:24;;;;;;;14.48;5.80;;;-4.70;99.90;;;;;;4858907;29;20040;-70
2024/01/20 01:13:50;;;;;;;8.82;5.95;;;-4.70;99.90;;;;;;4856243;29;20041;-69
2024/01/20 01:16:16;;;;;;;13.45;6.63;;;-4.70;99.90;;;;;;4855317;29;20040;-69
2024/01/20 01:18:41;;;;;;;15.20;8.40;;;-4.70;99.90;;;;;;4858607;29;20035;-69
2024/01/20 01:21:07;;;;;;;6.70;5.85;;;-4.70;99.90;;;;;;4859203;29;20380;-70
2024/01/20 01:23:33;;;;;;;13.02;5.88;;;-4.70;99.90;;;;;;4858263;29;20085;-70
2024/01/20 01:25:59;;;;;;;11.80;6.55;;;-4.70;99.90;;;;;;4858754;29;20033;-69
2024/01/20 01:28:25;;;;;;;14.13;7.38;;;-4.70;99.90;;;;;;4858981;29;20035;-70
2024/01/20 01:30:50;;;;;;;10.88;5.85;;;-4.70;99.90;;;;;;4872899;29;20032;-69
2024/01/20 01:33:16;;;;;;;12.20;4.95;;;-4.70;99.90;;;;;;4857394;29;20113;-69
2024/01/20 01:35:42;;;;;;;14.07;7.15;;;-4.70;99.90;;;;;;4850515;29;20515;-69
2024/01/20 01:38:07;;;;;;;14.50;8.35;;;-4.70;99.90;;;;;;4858858;29;20033;-69
2024/01/20 01:40:33;;;;;;;10.40;7.93;;;-4.60;99.90;;;;;;4857931;29;20025;-70
2024/01/20 01:43:01;;;;;;;8.82;5.35;;;-4.60;99.90;;;;;;4856793;29;20026;-69
2024/01/20 01:45:27;;;;;;;13.73;7.15;;;-4.50;99.90;;;;;;4858840;29;20037;-69
2024/01/20 01:47:55;;;;;;;14.38;5.88;;;-4.60;99.90;;;;;;4858460;29;20037;-69
2024/01/20 01:50:21;;;;;;;7.88;6.07;;;-4.80;99.90;;;;;;4872996;29;20041;-70
2024/01/20 01:52:54;;;;;;;16.63;7.47;;;-4.80;99.90;;;;;;4856752;29;20030;-70
2024/01/20 01:55:27;;;;;;;13.45;5.43;;;-4.90;99.90;;;;;;4870217;29;20029;-70
2024/01/20 01:57:59;;;;;;;12.70;7.82;;;-4.90;99.90;;;;;;4873014;29;20033;-70
2024/01/20 02:00:25;;;;;;;9.23;4.78;;;-4.90;99.90;;;;;;4854273;29;20459;-68
2024/01/20 02:02:51;;;;;;;6.15;5.50;;;-4.90;99.90;;;;;;4856982;29;20112;-70
2024/01/20 02:05:17;;;;;;;6.82;6.13;;;-4.90;99.90;;;;;;4857310;29;20072;-72
2024/01/20 02:07:53;;;;;;;6.47;4.55;;;-4.90;99.90;;;;;;4869119;29;20036;-73
2024/01/20 02:10:57;;;;;;;6.90;5.82;;;-4.90;99.90;;;;;;4857090;29;20044;-71
2024/01/20 02:13:32;;;;;;;7.05;4.13;;;-4.80;99.90;;;;;;4867218;29;20030;-70
2024/01/20 02:16:13;;;;;;;7.78;3.67;;;-4.60;99.90;;;;;;4856676;29;20029;-71
2024/01/20 02:19:32;;;;;;;10.13;3.95;;;-4.50;99.90;;;;;;4849736;29;20479;-70
2024/01/20 02:22:18;;;;;;;4.97;4.40;;;-4.50;99.90;;;;;;4857875;29;20037;-70
2024/01/20 02:24:50;;;;;;;6.03;4.28;;;-4.50;99.90;;;;;;4857148;29;20038;-70
2024/01/20 02:27:18;;;;;;;7.07;4.60;;;-4.60;99.90;;;;;;4858065;29;20041;-70
2024/01/20 02:29:44;;;;;;;10.13;6.40;;;-4.60;99.90;;;;;;4855149;29;20041;-69
2024/01/20 02:32:10;;;;;;;6.20;4.57;;;-4.60;99.90;;;;;;4860441;29;20025;-69
2024/01/20 02:34:39;;;;;;;6.20;5.03;;;-4.60;99.90;;;;;;4859827;29;20502;-69
2024/01/20 02:37:07;;;;;;;10.70;6.03;;;-4.60;99.90;;;;;;4860763;29;20041;-70
2024/01/20 02:39:34;;;;;;;6.28;3.75;;;-4.60;99.90;;;;;;4854355;29;20468;-69
2024/01/20 02:42:00;;;;;;;10.82;5.18;;;-4.70;99.90;;;;;;4860243;29;20076;-70
2024/01/20 02:44:25;;;;;;;11.63;8.05;;;-4.70;99.90;;;;;;4854558;29;20073;-70
2024/01/20 02:46:52;;;;;;;15.02;6.38;;;-4.60;99.90;;;;;;4859814;29;20038;-69
2024/01/20 02:49:19;;;;;;;11.65;6.32;;;-4.60;99.90;;;;;;4854528;29;20529;-70
2024/01/20 02:51:44;;;;;;;10.38;6.47;;;-4.60;99.90;;;;;;4860353;29;20466;-69
2024/01/20 02:54:10;;;;;;;6.75;5.13;;;-4.70;99.90;;;;;;4861231;29;20037;-70
2024/01/20 02:56:36;;;;;;;10.93;6.55;;;-4.60;99.90;;;;;;4844946;29;20038;-70
2024/01/20 02:59:02;;;;;;;12.38;7.22;;;-4.60;99.90;;;;;;4859800;29;20052;-70
2024/01/20 03:01:27;;;;;;;8.98;4.82;;;-4.60;99.90;;;;;;4861436;29;20399;-69
2024/01/20 03:03:53;;;;;;;11.05;6.25;;;-4.60;99.90;;;;;;4860680;29;20037;-69
2024/01/20 03:06:19;;;;;;;10.02;8.02;;;-4.50;99.90;;;;;;4861392;29;20090;-70
2024/01/20 03:08:44;;;;;;;10.00;5.63;;;-4.60;99.90;;;;;;4853856;29;20026;-69
2024/01/20 03:11:10;;;;;;;8.38;5.93;;;-4.60;99.90;;;;;;4860056;29;20029;-69
2024/01/20 03:13:36;;;;;;;5.57;4.22;;;-4.60;99.90;;;;;;4842987;29;20098;-70
2024/01/20 03:16:01;;;;;;;7.88;5.93;;;-4.60;99.90;;;;;;4860985;29;20041;-70
2024/01/20 03:18:27;;;;;;;9.18;5.03;;;-4.70;99.90;;;;;;4860725;29;20424;-69
2024/01/20 03:20:53;;;;;;;7.53;5.15;;;-4.80;99.90;;;;;;4861120;29;20033;-70
2024/01/20 03:23:19;;;;;;;9.02;5.82;;;-4.90;99.90;;;;;;4854224;29;20054;-69
2024/01/20 03:25:44;;;;;;;8.27;5.13;;;-4.90;99.90;;;;;;4860968;29;20121;-70
2024/01/20 03:28:10;;;;;;;7.03;4.28;;;-5.00;99.90;;;;;;4855101;29;20048;-70
2024/01/20 03:30:36;;;;;;;8.07;4.15;;;-5.00;99.90;;;;;;4859500;29;20055;-69
2024/01/20 03:33:02;;;;;;;8.77;5.13;;;-5.10;99.90;;;;;;4857186;29;20428;-70
2024/01/20 03:35:28;;;;;;;8.15;5.03;;;-5.00;99.90;;;;;;4858409;29;20029;-69
2024/01/20 03:37:54;;;;;;;6.80;3.65;;;-5.10;99.90;;;;;;4858941;29;20105;-70
2024/01/20 03:40:19;;;;;;;6.30;4.97;;;-5.20;99.90;;;;;;4874699;29;20037;-69
2024/01/20 03:42:45;;;;;;;12.63;5.70;;;-5.20;99.90;;;;;;4858422;29;20037;-69
2024/01/20 03:45:11;;;;;;;11.90;5.75;;;-5.20;99.90;;;;;;4859010;29;20042;-69
2024/01/20 03:47:36;;;;;;;9.65;4.95;;;-5.30;99.90;;;;;;4859170;29;20030;-70
2024/01/20 03:50:04;;;;;;;15.40;5.93;;;-5.40;99.90;;;;;;4860343;29;20033;-69
2024/01/20 03:52:32;;;;;;;7.38;5.07;;;-5.50;99.90;;;;;;4860189;29;20037;-69
2024/01/20 03:54:58;;;;;;;6.70;4.13;;;-5.50;99.90;;;;;;4854563;29;20450;-69
2024/01/20 03:57:23;;;;;;;9.32;4.50;;;-5.60;99.90;;;;;;4860313;29;20041;-69
2024/01/20 03:59:49;;;;;;;5.90;4.10;;;-5.70;99.90;;;;;;4859820;29;20048;-69
2024/01/20 04:02:15;;;;;;;12.15;5.60;;;-5.70;99.90;;;;;;4859824;29;20144;-69
2024/01/20 04:04:40;;;;;;;13.10;6.57;;;-5.80;99.90;;;;;;4859546;29;20033;-69
2024/01/20 04:07:06;;;;;;;9.38;5.80;;;-6.00;99.90;;;;;;4860011;29;20029;-70
2024/01/20 04:09:32;;;;;;;4.80;3.40;;;-6.00;99.90;;;;;;4854097;29;20041;-69
2024/01/20 04:11:58;;;;;;;5.40;4.25;;;-6.00;99.90;;;;;;4859839;29;20096;-69
2024/01/20 04:14:23;;;;;;;6.30;4.22;;;-6.10;99.90;;;;;;4858969;29;20041;-69
2024/01/20 04:16:49;;;;;;;10.57;3.55;;;-6.10;99.90;;;;;;4860040;29;20093;-69
2024/01/20 04:19:15;;;;;;;7.90;5.72;;;-6.10;99.90;;;;;;4859685;29;20045;-69
2024/01/20 04:21:42;;;;;;;6.20;4.13;;;-6.10;99.90;;;;;;4858947;29;20410;-70
2024/01/20 04:24:08;;;;;;;4.53;4.13;;;-6.20;99.90;;;;;;4859626;29;20049;-69
2024/01/20 04:26:35;;;;;;;6.93;4.70;;;-6.30;99.90;;;;;;4858239;29;20075;-70
2024/01/20 04:29:01;;;;;;;11.88;4.55;;;-6.40;99.90;;;;;;4853658;29;20029;-70
2024/01/20 04:31:26;;;;;;;5.03;3.13;;;-6.40;99.90;;;;;;4859245;29;20033;-70
2024/01/20 04:33:53;;;;;;;3.83;3.17;;;-6.50;99.90;;;;;;4858595;29;20037;-69
2024/01/20 04:36:19;;;;;;;5.75;4.32;;;-6.60;99.90;;;;;;4859641;29;20034;-69
2024/01/20 04:38:45;;;;;;;7.97;3.92;;;-6.60;99.90;;;;;;4852957;29;20482;-70
2024/01/20 04:41:11;;;;;;;5.13;3.83;;;-6.60;99.90;;;;;;4858137;29;20033;-70
2024/01/20 04:43:36;;;;;;;5.50;3.40;;;-6.70;99.90;;;;;;4852884;29;20056;-70
2024/01/20 04:46:02;;;;;;;7.90;5.10;;;-6.70;99.90;;;;;;4859088;29;20030;-70
2024/01/20 04:48:29;;;;;;;5.72;4.93;;;-6.70;99.90;;;;;;4852705;29;20082;-70
2024/01/20 04:50:55;;;;;;;4.57;4.15;;;-6.70;99.90;;;;;;4858677;29;20057;-70
2024/01/20 04:53:21;;;;;;;6.10;4.07;;;-6.80;99.90;;;;;;4858473;29;20056;-70
2024/01/20 04:55:46;;;;;;;9.88;5.45;;;-6.90;99.90;;;;;;4858998;29;20503;-70
2024/01/20 04:58:12;;;;;;;8.80;5.55;;;-6.90;99.90;;;;;;4858562;29;20463;-70
2024/01/20 05:00:39;;;;;;;4.63;2.95;;;-7.00;99.90;;;;;;4859091;29;20100;-70
2024/01/20 05:03:05;;;;;;;5.45;4.78;;;-7.00;99.90;;;;;;4858353;29;20042;-70
2024/01/20 05:05:31;;;;;;;9.10;6.63;;;-7.00;99.90;;;;;;4859195;29;20045;-70
2024/01/20 05:07:57;;;;;;;16.10;4.97;;;-6.90;99.90;;;;;;4872994;29;20035;-70
2024/01/20 05:10:22;;;;;;;9.02;4.85;;;-7.00;99.90;;;;;;4859020;29;20029;-70
2024/01/20 05:12:48;;;;;;;7.45;3.40;;;-7.00;99.90;;;;;;4850830;29;20041;-70
2024/01/20 05:15:14;;;;;;;6.10;3.58;;;-7.00;99.90;;;;;;4851899;29;20539;-70
2024/01/20 05:17:39;;;;;;;11.07;4.45;;;-7.10;99.90;;;;;;4854951;29;20041;-70
2024/01/20 05:20:06;;;;;;;6.90;3.88;;;-7.10;99.90;;;;;;4856475;29;20037;-70
2024/01/20 05:22:32;;;;;;;7.32;5.22;;;-7.20;99.90;;;;;;4857198;29;20040;-70
2024/01/20 05:24:58;;;;;;;6.32;2.35;;;-7.40;99.90;;;;;;4858494;29;20478;-70
2024/01/20 05:27:26;;;;;;;2.45;2.22;;;-7.50;99.90;;;;;;4858479;29;20539;-70
2024/01/20 05:29:52;;;;;;;3.70;3.30;;;-7.60;99.90;;;;;;4858307;29;20037;-69
2024/01/20 05:32:17;;;;;;;12.10;6.47;;;-7.50;99.90;;;;;;4857202;29;20033;-70
2024/01/20 05:34:43;;;;;;;3.67;3.30;;;-7.50;99.90;;;;;;4858504;29;20045;-70
2024/01/20 05:37:09;;;;;;;3.92;3.15;;;-7.50;99.90;;;;;;4858828;29;20034;-70
2024/01/20 05:39:35;;;;;;;7.07;4.63;;;-7.40;99.90;;;;;;4852391;29;20038;-70
2024/01/20 05:42:01;;;;;;;5.18;3.65;;;-7.50;99.90;;;;;;4858481;29;20029;-69
2024/01/20 05:44:28;;;;;;;3.60;2.88;;;-7.50;99.90;;;;;;4858354;29;20384;-69
2024/01/20 05:46:53;;;;;;;16.63;2.92;;;-7.70;99.90;;;;;;4857300;29;20431;-69
2024/01/20 05:49:19;;;;;;;7.47;3.90;;;-7.80;99.90;;;;;;4851915;29;20042;-70
2024/01/20 05:51:45;;;;;;;7.65;3.63;;;-7.80;99.90;;;;;;4871712;29;20029;-69
2024/01/20 05:54:10;;;;;;;3.67;2.83;;;-7.80;99.90;;;;;;4858105;29;20037;-69
2024/01/20 05:56:36;;;;;;;4.43;3.00;;;-7.90;99.90;;;;;;4858430;29;20030;-69
2024/01/20 05:59:02;;;;;;;5.25;2.90;;;-7.90;99.90;;;;;;4858175;29;20510;-69
2024/01/20 06:01:28;;;;;;;6.65;3.47;;;-7.80;99.90;;;;;;4858441;29;20116;-69
2024/01/20 06:03:54;;;;;;;5.05;4.05;;;-7.80;99.90;;;;;;4859228;29;20128;-69
2024/01/20 06:06:19;;;;;;;14.35;4.13;;;-7.70;99.90;;;;;;4847520;29;20477;-69
2024/01/20 06:08:45;;;;;;;4.35;2.63;;;-7.60;99.90;;;;;;4861708;29;20041;-70
2024/01/20 06:11:11;;;;;;;9.27;5.20;;;-7.40;99.90;;;;;;4861963;29;20025;-69
2024/01/20 06:13:37;;;;;;;2.83;2.25;;;-7.30;99.90;;;;;;4861640;29;20036;-69
2024/01/20 06:16:06;;;;;;;7.53;5.20;;;-7.50;99.90;;;;;;4856508;29;20033;-69
2024/01/20 06:18:32;;;;;;;4.25;2.28;;;-7.50;99.90;;;;;;4860312;29;20116;-69
2024/01/20 06:21:00;;;;;;;3.40;2.72;;;-7.50;99.90;;;;;;4860170;29;20431;-69
2024/01/20 06:23:27;;;;;;;8.80;4.45;;;-7.40;99.90;;;;;;4875703;29;20563;-69
2024/01/20 06:25:52;;;;;;;7.28;4.32;;;-7.50;99.90;;;;;;4855020;29;20056;-69
2024/01/20 06:28:18;;;;;;;6.68;3.85;;;-7.50;99.90;;;;;;4861829;29;20266;-69
2024/01/20 06:30:46;;;;;;;7.10;4.00;;;-7.50;99.90;;;;;;4861122;29;20041;-69
2024/01/20 06:33:12;;;;;;;6.43;3.50;;;-7.50;99.90;;;;;;4861700;29;20621;-69
2024/01/20 06:35:38;;;;;;;2.35;2.17;;;-7.50;99.90;;;;;;4860706;29;20033;-68
2024/01/20 06:38:04;;;;;;;4.05;2.45;;;-7.60;99.90;;;;;;4860315;29;20356;-68
2024/01/20 06:40:30;;;;;;;3.58;3.22;;;-7.50;99.90;;;;;;4861045;29;20498;-68
2024/01/20 06:42:55;;;;;;;5.28;3.00;;;-7.50;99.90;;;;;;4860922;29;20133;-68
2024/01/20 06:45:21;;;;;;;4.47;3.42;;;-7.70;99.90;;;;;;4856092;29;20037;-69
2024/01/20 06:47:47;;;;;;;4.32;3.17;;;-7.80;99.90;;;;;;4875581;29;20093;-68
2024/01/20 06:50:13;;;;;;;6.65;4.18;;;-8.00;99.90;;;;;;4854702;29;20030;-69
2024/01/20 06:52:39;;;;;;;6.40;3.63;;;-8.00;99.90;;;;;;4858813;29;20033;-68
2024/01/20 06:55:05;;;;;;;12.48;7.07;;;-8.20;99.90;;;;;;4860134;29;20029;-69
2024/01/20 06:57:31;;;;;;;8.82;4.95;;;-8.30;99.90;;;;;;4860845;29;20095;-68
2024/01/20 06:59:57;;;;;;;19.33;8.60;;;-8.10;99.90;;;;;;4860109;29;20042;-69
2024/01/20 07:02:22;;;;;;;4.13;3.85;;;-8.10;99.90;;;;;;4859711;29;20041;-68
2024/01/20 07:04:48;;;;;;;3.70;3.38;;;-8.20;99.90;;;;;;4860213;29;20037;-68
2024/01/20 07:07:14;;;;;;;9.63;2.80;;;-8.50;99.90;;;;;;4860654;29;20052;-69
2024/01/20 07:09:40;;;;;;;7.70;3.40;;;-8.50;99.90;;;;;;4855816;29;20049;-69
2024/01/20 07:12:09;;;;;;;44.00;4.15;;;-8.60;99.90;;;;;;4853481;29;20517;-68
2024/01/20 07:14:35;;;;;;;2.85;2.40;;;-8.90;99.90;;;;;;4869653;29;20089;-68
2024/01/20 07:17:01;;;;;;;0.98;0.98;;;-9.10;99.90;;;;;;4860010;29;20033;-68
2024/01/20 07:19:27;;;;;;;4.90;3.05;;;-9.20;99.90;;;;;;4858954;29;20093;-68
2024/01/20 07:21:54;;;;;;;8.55;4.40;;;-9.10;99.90;;;;;;4860701;29;20554;-67
2024/01/20 07:24:20;;;;;;;5.10;2.92;;;-9.00;99.90;;;;;;4858383;29;20097;-69
2024/01/20 07:26:46;;;;;;;2.72;2.50;;;-9.00;99.90;;;;;;4860703;29;20037;-67
2024/01/20 07:29:11;;;;;;;4.60;2.42;;;-8.90;99.90;;;;;;4860412;29;20040;-68
2024/01/20 07:31:37;;;;;;;12.55;4.35;;;-8.80;99.90;;;;;;4860461;29;20032;-68
2024/01/20 07:34:03;;;;;;;5.45;3.58;;;-8.80;99.90;;;;;;4859999;29;20487;-68
2024/01/20 07:36:28;;;;;;;8.60;2.72;;;-8.80;99.90;;;;;;4860517;29;20038;-68
2024/01/20 07:38:54;;;;;;;3.38;3.08;;;-8.70;99.90;;;;;;4860337;29;20383;-69
2024/01/20 07:41:20;;;;;;;6.20;3.58;;;-8.70;99.90;;;;;;4860186;29;20040;-68
2024/01/20 07:43:46;;;;;;;3.97;3.67;;;-8.70;99.90;;;;;;4858283;29;20040;-69
2024/01/20 07:46:12;;;;;;;4.03;3.55;;;-8.60;99.90;;;;;;4860478;29;20028;-68
2024/01/20 07:48:38;;;;;;;4.05;3.72;;;-8.70;99.90;;;;;;4859882;29;21041;-69
2024/01/20 07:51:04;;;;;;;8.50;4.75;;;-8.90;99.90;;;;;;4860172;29;20061;-68
2024/01/20 07:53:30;;;;;;;5.72;4.82;;;-8.80;99.90;;;;;;4873385;29;20479;-68
2024/01/20 07:55:55;;;;;;;4.03;3.53;;;-8.70;99.90;;;;;;4859439;29;20037;-68
2024/01/20 07:58:21;;;;;;;2.92;1.80;;;-8.60;99.90;;;;;;4860396;29;20041;-69
2024/01/20 08:00:47;;;;;;;6.55;4.07;;;-8.50;99.90;;;;;;4857600;29;20029;-69
2024/01/20 08:03:13;;;;;;;2.83;2.38;;;-8.50;99.90;;;;;;4859441;29;20037;-69
2024/01/20 08:05:38;;;;;;;4.30;3.80;;;-8.60;99.90;;;;;;4869081;29;20041;-69
2024/01/20 08:08:04;;;;;;;4.28;3.80;;;-8.60;99.90;;;;;;4871259;29;20058;-69
2024/01/20 08:10:30;;;;;;;6.07;5.30;;;-8.50;99.90;;;;;;4858531;29;20033;-68
2024/01/20 08:12:56;;;;;;;6.00;4.80;;;-8.40;99.90;;;;;;4859061;29;20033;-68
2024/01/20 08:15:23;;;;;;;5.07;2.35;;;-8.30;99.90;;;;;;4858080;29;20037;-69
2024/01/20 08:17:49;;;;;;;4.25;3.58;;;-8.20;99.90;;;;;;4859802;29;20169;-68
2024/01/20 08:20:15;;;;;;;3.17;2.85;;;-8.10;99.90;;;;;;4858339;29;20140;-68
2024/01/20 08:22:41;;;;;;;3.65;2.67;;;-8.10;99.90;;;;;;4858735;29;20554;-68
2024/01/20 08:25:08;;;;;;;6.28;4.10;;;-8.10;99.90;;;;;;4858238;29;20025;-68
2024/01/20 08:27:34;;;;;;;5.05;4.13;;;-7.90;99.90;;;;;;4857031;29;20038;-68
2024/01/20 08:30:02;;;;;;;4.85;4.45;;;-7.80;99.90;;;;;;4853960;29;20021;-68
2024/01/20 08:32:28;;;;;;;10.32;6.80;;;-7.80;99.90;;;;;;4859540;29;20112;-68
2024/01/20 08:34:55;;;;;;;15.68;7.65;;;-7.70;99.90;;;;;;4857257;29;20056;-68
2024/01/20 08:37:21;;;;;;;9.02;4.38;;;-7.60;99.90;;;;;;4859667;29;20337;-68
2024/01/20 08:39:47;;;;;;;6.65;4.57;;;-7.30;99.90;;;;;;4859233;29;20045;-68
2024/01/20 08:42:12;;;;;;;11.40;5.35;;;-7.30;99.90;;;;;;4859277;29;20041;-68
2024/01/20 08:44:39;;;;;;;7.30;3.70;;;-7.20;99.90;;;;;;4858147;29;20078;-68
2024/01/20 08:47:05;;;;;;;7.20;4.18;;;-7.10;99.90;;;;;;4859229;29;20046;-68
2024/01/20 08:49:31;;;;;;;6.68;4.07;;;-7.00;99.90;;;;;;4858805;29;20049;-68
2024/01/20 08:51:56;;;;;;;4.55;4.10;;;-6.90;99.90;;;;;;4859194;29;20407;-68
2024/01/20 08:54:22;;;;;;;5.70;3.53;;;-6.90;99.90;;;;;;4858382;29;20430;-68
2024/01/20 08:56:49;;;;;;;8.00;6.13;;;-7.10;99.90;;;;;;4858711;29;20060;-68
2024/01/20 08:59:14;;;;;;;7.68;4.22;;;-7.10;99.90;;;;;;4859067;29;20478;-68
2024/01/20 09:01:40;;;;;;;35.22;7.93;;;-7.00;99.90;;;;;;4858896;29;20042;-68
2024/01/20 09:04:06;;;;;;;8.85;7.25;;;-6.90;99.90;;;;;;4857520;29;20402;-68
2024/01/20 09:06:32;;;;;;;18.90;7.55;;;-6.70;99.90;;;;;;4858227;29;20037;-68
2024/01/20 09:08:58;;;;;;;5.70;2.90;;;-6.70;99.90;;;;;;4859115;29;20397;-68
2024/01/20 09:11:23;;;;;;;3.25;3.05;;;-6.50;99.90;;;;;;4858462;29;20570;-68
2024/01/20 09:13:49;;;;;;;9.82;5.65;;;-6.40;99.90;;;;;;4858651;29;20041;-68
2024/01/20 09:16:15;;;;;;;32.05;6.15;;;-6.30;99.90;;;;;;4858705;29;20094;-68
2024/01/20 09:18:40;;;;;;;9.57;5.60;;;-6.10;99.90;;;;;;4872999;29;20041;-68
2024/01/20 09:21:12;;;;;;;10.45;5.93;;;-5.80;99.90;;;;;;4858427;29;20033;-68
2024/01/20 09:23:39;;;;;;;7.85;6.00;;;-5.60;99.90;;;;;;4857172;29;20038;-68
2024/01/20 09:26:04;;;;;;;8.02;5.55;;;-5.20;99.90;;;;;;4858391;29;20053;-68
2024/01/20 09:28:30;;;;;;;12.55;4.53;;;-5.10;99.90;;;;;;4858578;29;20073;-68
2024/01/20 09:30:56;;;;;;;10.57;5.95;;;-4.90;99.90;;;;;;4856627;29;20029;-68
2024/01/20 09:33:21;;;;;;;10.93;6.25;;;-4.80;99.90;;;;;;4857592;29;20026;-68
2024/01/20 09:35:47;;;;;;;7.05;4.55;;;-4.70;99.90;;;;;;4855811;29;20498;-68
2024/01/20 09:38:13;;;;;;;7.10;5.15;;;-4.80;99.90;;;;;;4859779;29;20037;-68
2024/01/20 09:40:39;;;;;;;6.95;5.65;;;-4.70;99.90;;;;;;4860188;29;20049;-68
2024/01/20 09:43:05;;;;;;;15.82;7.30;;;-4.60;99.90;;;;;;4860991;29;20029;-68
2024/01/20 09:45:34;;;;;;;9.20;5.13;;;-4.40;99.90;;;;;;4859000;29;20107;-67
2024/01/20 09:48:00;;;;;;;6.90;3.67;;;-4.20;99.90;;;;;;4861453;29;20034;-67
2024/01/20 09:50:25;;;;;;;6.65;5.47;;;-4.20;99.90;;;;;;4872893;29;20044;-67
2024/01/20 09:53:03;;;;;;;17.45;9.35;;;-3.90;99.90;;;;;;4875722;29;20082;-67
2024/01/20 09:55:28;;;;;;;13.88;7.05;;;-3.90;99.90;;;;;;4861786;29;20112;-67
2024/01/20 09:57:56;;;;;;;15.43;7.95;;;-3.70;99.90;;;;;;4861567;29;20104;-68
2024/01/20 10:00:24;;;;;;;23.30;12.10;;;-3.40;99.90;;;;;;4856455;29;20424;-68
2024/01/20 10:02:50;;;;;;;22.38;8.25;;;-3.30;99.90;;;;;;4858718;29;20089;-69
2024/01/20 10:05:16;;;;;;;14.80;8.48;;;-4.20;99.90;;;;;;4854940;29;20041;-70
2024/01/20 10:07:42;;;;;;;17.45;8.27;;;-3.60;99.90;;;;;;4857963;29;20121;-70
2024/01/20 10:10:20;;;;;;;19.83;7.65;;;-3.80;99.90;;;;;;4859451;29;20030;-70
2024/01/20 10:12:51;;;;;;;13.82;9.40;;;-3.10;99.90;;;;;;4860499;29;20116;-70
2024/01/20 10:15:28;;;;;;;13.87;9.53;;;-2.80;99.90;;;;;;4859266;29;20045;-70
2024/01/20 10:17:55;;;;;;;18.80;8.73;;;-2.90;99.90;;;;;;4860544;29;20527;-70
2024/01/20 10:20:25;;;;;;;14.93;9.32;;;-2.60;99.90;;;;;;4861273;29;20034;-69
2024/01/20 10:22:52;;;;;;;16.42;7.85;;;-3.20;99.90;;;;;;4860419;29;20036;-70
2024/01/20 10:25:19;;;;;;;26.88;16.10;;;-3.20;99.90;;;;;;4861258;29;20414;-69
2024/01/20 10:27:50;;;;;;;35.08;18.83;;;-3.40;99.90;;;;;;4859979;29;20045;-68
2024/01/20 10:30:24;;;;;;;20.10;10.38;;;-3.60;99.90;;;;;;4859336;29;20041;-68
2024/01/20 10:32:51;;;;;;;22.25;7.70;;;-3.90;99.90;;;;;;4860129;29;20112;-69
2024/01/20 10:35:17;;;;;;;18.35;8.75;;;-2.30;99.90;;;;;;4858841;29;20044;-68
2024/01/20 10:37:50;;;;;;;20.48;11.35;;;-0.80;99.90;;;;;;4875687;29;20116;-66
2024/01/20 10:40:16;;;;;;;31.60;11.60;;;-0.90;99.90;;;;;;4861445;29;20402;-66
2024/01/20 10:42:52;;;;;;;33.83;11.90;;;0.30;99.90;;;;;;4859922;29;20034;-66
2024/01/20 10:45:19;;;;;;;23.02;10.10;;;1.10;99.90;;;;;;4858802;29;20066;-67
2024/01/20 10:48:14;;;;;;;26.55;11.38;;;-0.20;99.90;;;;;;4855431;29;20057;-66
2024/01/20 10:50:46;;;;;;;27.30;11.57;;;2.20;99.90;;;;;;4853838;29;20128;-66
2024/01/20 10:53:12;;;;;;;47.55;17.92;;;1.60;99.90;;;;;;4859872;29;20021;-66
2024/01/20 10:55:41;;;;;;;30.35;12.90;;;2.90;99.90;;;;;;4860937;29;20098;-65
2024/01/20 10:58:08;;;;;;;31.08;11.48;;;4.90;92.70;;;;;;4859976;29;20037;-65
2024/01/20 11:00:36;;;;;;;27.65;11.27;;;5.90;97.40;;;;;;4858142;29;20041;-65
2024/01/20 11:03:05;;;;;;;27.58;11.82;;;5.70;84.50;;;;;;4843833;29;20082;-64
2024/01/20 11:05:32;;;;;;;29.30;11.82;;;5.40;92.50;;;;;;4855335;29;20056;-65
2024/01/20 11:08:08;;;;;;;21.05;10.73;;;6.90;86.40;;;;;;4871239;29;20029;-65
2024/01/20 11:10:41;;;;;;;27.30;11.27;;;8.40;93.10;;;;;;4826870;29;20132;-65
2024/01/20 11:13:16;;;;;;;21.23;9.77;;;4.10;98.50;;;;;;4867737;29;20498;-65
2024/01/20 11:15:49;;;;;;;28.27;11.73;;;3.40;94.50;;;;;;4853539;29;20053;-64
2024/01/20 11:18:20;;;;;;;22.45;11.73;;;6.60;97.30;;;;;;4857194;29;20070;-65
2024/01/20 11:21:16;;;;;;;;;;;7.90;93.10;;;;;;4858243;29;20103;-65
2024/01/20 11:23:59;;;;;;;21.25;9.50;;;10.30;82.70;;;;;;4860407;29;19916;-65
2024/01/20 11:26:38;;;;;;;22.42;8.85;;;7.40;83.70;;;;;;4855639;29;20045;-65
2024/01/20 11:29:06;;;;;;;21.60;10.52;;;3.80;92.30;;;;;;4855610;29;20022;-65
2024/01/20 11:31:33;;;;;;;23.08;9.93;;;6.00;98.00;;;;;;4853245;29;20592;-66
2024/01/20 11:34:00;;;;;;;23.98;9.70;;;5.20;95.00;;;;;;4859198;29;20025;-66
2024/01/20 11:36:30;;;;;;;23.20;9.25;;;4.80;93.60;;;;;;4857370;29;20470;-66
2024/01/20 11:38:57;;;;;;;20.67;9.88;;;4.70;98.00;;;;;;4860875;29;20376;-65
2024/01/20 11:41:23;;;;;;;23.73;10.43;;;6.20;97.80;;;;;;4857434;29;20037;-65
2024/01/20 11:43:49;;;;;;;26.33;9.70;;;7.00;93.60;;;;;;4859837;29;20481;-66
2024/01/20 11:46:15;;;;;;;21.70;10.80;;;6.30;92.50;;;;;;4856829;29;20116;-66
2024/01/20 11:48:46;;;;;;;24.92;11.52;;;3.80;96.80;;;;;;4858972;29;20042;-66
2024/01/20 11:51:12;;;;;;;24.38;10.90;;;3.20;99.90;;;;;;4857184;29;20025;-66
2024/01/20 11:53:38;;;;;;;25.10;10.23;;;4.10;98.70;;;;;;4858761;29;20037;-66
2024/01/20 11:56:05;;;;;;;25.88;11.90;;;5.20;98.70;;;;;;4856749;29;20627;-66
2024/01/20 11:58:31;;;;;;;24.77;10.20;;;5.10;93.40;;;;;;4872145;29;20048;-66
2024/01/20 12:00:59;;;;;;;22.63;10.15;;;4.00;98.30;;;;;;4869069;29;20056;-66
2024/01/20 12:03:28;;;;;;;22.52;9.75;;;2.50;99.90;;;;;;4858439;29;20033;-66
2024/01/20 12:05:54;;;;;;;18.15;8.48;;;4.30;99.90;;;;;;4858265;29;20550;-66
2024/01/20 12:08:21;;;;;;;19.15;9.85;;;6.10;95.30;;;;;;4873439;29;20034;-65
2024/01/20 12:10:47;;;;;;;20.65;10.15;;;9.10;90.80;;;;;;4856454;29;20089;-65
2024/01/20 12:13:14;;;;;;;26.05;9.43;;;11.70;76.80;;;;;;4858022;29;20037;-65
2024/01/20 12:15:41;;;;;;;24.40;12.15;;;12.60;70.10;;;;;;4858191;29;20086;-65
2024/01/20 12:18:07;;;;;;;28.70;10.32;;;9.10;70.50;;;;;;4856308;29;20041;-65
2024/01/20 12:20:35;;;;;;;24.20;12.43;;;5.20;95.60;;;;;;4859416;29;20052;-65
2024/01/20 12:23:02;;;;;;;21.13;11.30;;;3.00;99.90;;;;;;4858247;29;20033;-65
2024/01/20 12:25:31;;;;;;;23.23;10.93;;;2.60;99.90;;;;;;4871795;29;20034;-65
2024/01/20 12:28:01;;;;;;;20.10;10.43;;;2.90;99.90;;;;;;4859949;29;20033;-65
2024/01/20 12:30:28;;;;;;;23.67;10.35;;;5.30;99.40;;;;;;4857195;29;20033;-66
2024/01/20 12:32:56;;;;;;;26.73;10.20;;;6.10;97.90;;;;;;4858024;29;20048;-65
2024/01/20 12:35:22;;;;;;;19.42;8.52;;;7.30;94.60;;;;;;4856724;29;20044;-65
2024/01/20 12:37:48;;;;;;;51.50;17.80;;;6.60;87.90;;;;;;4859570;29;20041;-65
2024/01/20 12:40:15;;;;;;;26.02;12.27;;;6.70;96.90;;;;;;4857962;29;20083;-65
2024/01/20 12:42:41;;;;;;;25.13;10.88;;;9.30;87.00;;;;;;4857738;29;20037;-65